sensor_id;sensor_type;location;lat;lon;timestamp;P1;durP1;ratioP1;P2;durP2;ratioP2
67140;SDS011;54058;52.010;5.546;2023-11-19T00:00:46;15.18;;;4.70;;
67140;SDS011;54058;52.010;5.546;2023-11-19T00:03:11;13.00;;;4.28;;
67140;SDS011;54058;52.010;5.546;2023-11-19T00:05:38;10.80;;;4.63;;
67140;SDS011;54058;52.010;5.546;2023-11-19T00:08:04;18.67;;;4.25;;
67140;SDS011;54058;52.010;5.546;2023-11-19T00:10:31;12.27;;;3.75;;
67140;SDS011;54058;52.010;5.546;2023-11-19T00:12:56;17.90;;;4.35;;
67140;SDS011;54058;52.010;5.546;2023-11-19T00:15:22;13.80;;;4.60;;
67140;SDS011;54058;52.010;5.546;2023-11-19T00:17:49;8.65;;;3.47;;
67140;SDS011;54058;52.010;5.546;2023-11-19T00:20:16;19.50;;;4.30;;
67140;SDS011;54058;52.010;5.546;2023-11-19T00:22:43;22.55;;;4.65;;
67140;SDS011;54058;52.010;5.546;2023-11-19T00:25:09;19.73;;;4.40;;
67140;SDS011;54058;52.010;5.546;2023-11-19T00:27:35;24.88;;;4.43;;
67140;SDS011;54058;52.010;5.546;2023-11-19T00:30:02;14.18;;;3.90;;
67140;SDS011;54058;52.010;5.546;2023-11-19T00:32:30;17.23;;;3.95;;
67140;SDS011;54058;52.010;5.546;2023-11-19T00:34:57;22.58;;;4.00;;
67140;SDS011;54058;52.010;5.546;2023-11-19T00:37:22;27.90;;;4.05;;
67140;SDS011;54058;52.010;5.546;2023-11-19T00:39:48;30.13;;;4.40;;
67140;SDS011;54058;52.010;5.546;2023-11-19T00:42:13;24.38;;;4.25;;
67140;SDS011;54058;52.010;5.546;2023-11-19T00:44:39;28.77;;;4.97;;
67140;SDS011;54058;52.010;5.546;2023-11-19T00:47:06;29.00;;;4.55;;
67140;SDS011;54058;52.010;5.546;2023-11-19T00:49:31;24.23;;;5.57;;
67140;SDS011;54058;52.010;5.546;2023-11-19T00:51:58;15.32;;;3.75;;
67140;SDS011;54058;52.010;5.546;2023-11-19T00:54:24;20.67;;;4.63;;
67140;SDS011;54058;52.010;5.546;2023-11-19T00:56:51;16.30;;;3.83;;
67140;SDS011;54058;52.010;5.546;2023-11-19T00:59:18;20.90;;;3.88;;
67140;SDS011;54058;52.010;5.546;2023-11-19T01:01:44;37.45;;;4.28;;
67140;SDS011;54058;52.010;5.546;2023-11-19T01:04:09;20.70;;;3.97;;
67140;SDS011;54058;52.010;5.546;2023-11-19T01:06:35;25.83;;;4.18;;
67140;SDS011;54058;52.010;5.546;2023-11-19T01:09:01;25.08;;;4.55;;
67140;SDS011;54058;52.010;5.546;2023-11-19T01:11:27;31.17;;;4.55;;
67140;SDS011;54058;52.010;5.546;2023-11-19T01:13:53;25.13;;;4.28;;
67140;SDS011;54058;52.010;5.546;2023-11-19T01:16:19;24.83;;;4.18;;
67140;SDS011;54058;52.010;5.546;2023-11-19T01:18:48;27.05;;;3.90;;
67140;SDS011;54058;52.010;5.546;2023-11-19T01:21:14;20.83;;;4.03;;
67140;SDS011;54058;52.010;5.546;2023-11-19T01:23:43;25.40;;;4.15;;
67140;SDS011;54058;52.010;5.546;2023-11-19T01:26:09;19.77;;;3.53;;
67140;SDS011;54058;52.010;5.546;2023-11-19T01:28:36;19.48;;;3.58;;
67140;SDS011;54058;52.010;5.546;2023-11-19T01:31:01;29.70;;;4.05;;
67140;SDS011;54058;52.010;5.546;2023-11-19T01:33:28;28.05;;;3.58;;
67140;SDS011;54058;52.010;5.546;2023-11-19T01:35:54;23.55;;;3.15;;
67140;SDS011;54058;52.010;5.546;2023-11-19T01:38:23;22.17;;;4.18;;
67140;SDS011;54058;52.010;5.546;2023-11-19T01:40:49;25.15;;;4.43;;
67140;SDS011;54058;52.010;5.546;2023-11-19T01:43:30;24.30;;;3.65;;
67140;SDS011;54058;52.010;5.546;2023-11-19T01:45:58;27.83;;;3.22;;
67140;SDS011;54058;52.010;5.546;2023-11-19T01:48:24;41.20;;;4.85;;
67140;SDS011;54058;52.010;5.546;2023-11-19T01:50:49;23.92;;;3.67;;
67140;SDS011;54058;52.010;5.546;2023-11-19T01:53:17;26.88;;;4.00;;
67140;SDS011;54058;52.010;5.546;2023-11-19T01:55:43;26.55;;;3.95;;
67140;SDS011;54058;52.010;5.546;2023-11-19T01:58:09;28.63;;;3.33;;
67140;SDS011;54058;52.010;5.546;2023-11-19T02:00:35;28.70;;;3.67;;
67140;SDS011;54058;52.010;5.546;2023-11-19T02:03:01;37.55;;;3.85;;
67140;SDS011;54058;52.010;5.546;2023-11-19T02:05:28;22.25;;;2.97;;
67140;SDS011;54058;52.010;5.546;2023-11-19T02:07:54;32.70;;;4.63;;
67140;SDS011;54058;52.010;5.546;2023-11-19T02:10:19;24.65;;;3.65;;
67140;SDS011;54058;52.010;5.546;2023-11-19T02:12:45;31.23;;;4.13;;
67140;SDS011;54058;52.010;5.546;2023-11-19T02:15:11;23.13;;;3.53;;
67140;SDS011;54058;52.010;5.546;2023-11-19T02:17:37;26.67;;;3.40;;
67140;SDS011;54058;52.010;5.546;2023-11-19T02:20:06;28.27;;;3.65;;
67140;SDS011;54058;52.010;5.546;2023-11-19T02:22:34;34.97;;;3.20;;
67140;SDS011;54058;52.010;5.546;2023-11-19T02:25:00;28.02;;;4.03;;
67140;SDS011;54058;52.010;5.546;2023-11-19T02:27:41;34.13;;;4.28;;
67140;SDS011;54058;52.010;5.546;2023-11-19T02:30:20;37.22;;;4.65;;
67140;SDS011;54058;52.010;5.546;2023-11-19T02:32:51;29.67;;;4.32;;
67140;SDS011;54058;52.010;5.546;2023-11-19T02:35:18;31.67;;;4.40;;
67140;SDS011;54058;52.010;5.546;2023-11-19T02:37:44;25.90;;;4.65;;
67140;SDS011;54058;52.010;5.546;2023-11-19T02:40:10;35.85;;;4.22;;
67140;SDS011;54058;52.010;5.546;2023-11-19T02:42:36;36.58;;;5.47;;
67140;SDS011;54058;52.010;5.546;2023-11-19T02:45:01;32.35;;;4.35;;
67140;SDS011;54058;52.010;5.546;2023-11-19T02:47:31;37.20;;;4.75;;
67140;SDS011;54058;52.010;5.546;2023-11-19T02:49:58;37.35;;;4.53;;
67140;SDS011;54058;52.010;5.546;2023-11-19T02:52:24;36.60;;;4.10;;
67140;SDS011;54058;52.010;5.546;2023-11-19T02:54:50;46.58;;;4.85;;
67140;SDS011;54058;52.010;5.546;2023-11-19T02:57:16;32.13;;;3.53;;
67140;SDS011;54058;52.010;5.546;2023-11-19T02:59:44;35.50;;;4.10;;
67140;SDS011;54058;52.010;5.546;2023-11-19T03:02:10;43.42;;;5.20;;
67140;SDS011;54058;52.010;5.546;2023-11-19T03:04:41;37.38;;;4.80;;
67140;SDS011;54058;52.010;5.546;2023-11-19T03:07:08;55.00;;;5.68;;
67140;SDS011;54058;52.010;5.546;2023-11-19T03:09:34;38.88;;;5.18;;
67140;SDS011;54058;52.010;5.546;2023-11-19T03:12:00;43.35;;;5.10;;
67140;SDS011;54058;52.010;5.546;2023-11-19T03:14:32;41.85;;;4.43;;
67140;SDS011;54058;52.010;5.546;2023-11-19T03:16:59;35.10;;;4.03;;
67140;SDS011;54058;52.010;5.546;2023-11-19T03:19:25;42.72;;;5.15;;
67140;SDS011;54058;52.010;5.546;2023-11-19T03:21:51;32.10;;;4.70;;
67140;SDS011;54058;52.010;5.546;2023-11-19T03:24:17;41.92;;;5.45;;
67140;SDS011;54058;52.010;5.546;2023-11-19T03:26:47;30.85;;;4.47;;
67140;SDS011;54058;52.010;5.546;2023-11-19T03:29:16;37.63;;;5.55;;
67140;SDS011;54058;52.010;5.546;2023-11-19T03:31:42;33.83;;;4.18;;
67140;SDS011;54058;52.010;5.546;2023-11-19T03:34:08;34.47;;;5.50;;
67140;SDS011;54058;52.010;5.546;2023-11-19T03:36:34;41.92;;;5.90;;
67140;SDS011;54058;52.010;5.546;2023-11-19T03:38:59;36.30;;;4.70;;
67140;SDS011;54058;52.010;5.546;2023-11-19T03:41:25;41.88;;;4.53;;
67140;SDS011;54058;52.010;5.546;2023-11-19T03:43:51;37.33;;;5.82;;
67140;SDS011;54058;52.010;5.546;2023-11-19T03:48:44;42.00;;;4.72;;
67140;SDS011;54058;52.010;5.546;2023-11-19T03:51:11;41.60;;;5.15;;
67140;SDS011;54058;52.010;5.546;2023-11-19T03:53:40;45.58;;;5.18;;
67140;SDS011;54058;52.010;5.546;2023-11-19T03:56:14;45.47;;;7.35;;
67140;SDS011;54058;52.010;5.546;2023-11-19T03:58:40;51.15;;;5.60;;
67140;SDS011;54058;52.010;5.546;2023-11-19T04:01:06;33.00;;;5.20;;
67140;SDS011;54058;52.010;5.546;2023-11-19T04:03:38;47.42;;;5.03;;
67140;SDS011;54058;52.010;5.546;2023-11-19T04:06:04;42.58;;;4.63;;
67140;SDS011;54058;52.010;5.546;2023-11-19T04:08:29;34.45;;;4.53;;
67140;SDS011;54058;52.010;5.546;2023-11-19T04:10:55;40.92;;;5.05;;
67140;SDS011;54058;52.010;5.546;2023-11-19T04:13:21;45.75;;;5.43;;
67140;SDS011;54058;52.010;5.546;2023-11-19T04:15:49;38.42;;;5.50;;
67140;SDS011;54058;52.010;5.546;2023-11-19T04:18:15;46.95;;;5.72;;
67140;SDS011;54058;52.010;5.546;2023-11-19T04:20:41;42.35;;;4.95;;
67140;SDS011;54058;52.010;5.546;2023-11-19T04:23:08;41.53;;;4.35;;
67140;SDS011;54058;52.010;5.546;2023-11-19T04:25:34;39.37;;;5.17;;
67140;SDS011;54058;52.010;5.546;2023-11-19T04:28:00;42.03;;;5.18;;
67140;SDS011;54058;52.010;5.546;2023-11-19T04:30:27;45.05;;;5.00;;
67140;SDS011;54058;52.010;5.546;2023-11-19T04:32:53;35.78;;;5.03;;
67140;SDS011;54058;52.010;5.546;2023-11-19T04:35:18;35.13;;;4.50;;
67140;SDS011;54058;52.010;5.546;2023-11-19T04:37:44;42.67;;;5.22;;
67140;SDS011;54058;52.010;5.546;2023-11-19T04:40:10;39.75;;;5.63;;
67140;SDS011;54058;52.010;5.546;2023-11-19T04:42:37;44.25;;;5.30;;
67140;SDS011;54058;52.010;5.546;2023-11-19T04:45:05;49.28;;;4.68;;
67140;SDS011;54058;52.010;5.546;2023-11-19T04:47:32;47.50;;;5.97;;
67140;SDS011;54058;52.010;5.546;2023-11-19T04:49:59;38.10;;;5.93;;
67140;SDS011;54058;52.010;5.546;2023-11-19T04:52:25;36.83;;;4.43;;
67140;SDS011;54058;52.010;5.546;2023-11-19T04:54:50;40.83;;;4.82;;
67140;SDS011;54058;52.010;5.546;2023-11-19T04:57:16;44.55;;;5.18;;
67140;SDS011;54058;52.010;5.546;2023-11-19T04:59:42;47.03;;;4.85;;
67140;SDS011;54058;52.010;5.546;2023-11-19T05:02:08;39.10;;;5.15;;
67140;SDS011;54058;52.010;5.546;2023-11-19T05:04:34;30.67;;;4.22;;
67140;SDS011;54058;52.010;5.546;2023-11-19T05:07:00;38.88;;;5.43;;
67140;SDS011;54058;52.010;5.546;2023-11-19T05:09:26;45.55;;;6.95;;
67140;SDS011;54058;52.010;5.546;2023-11-19T05:11:51;33.72;;;4.57;;
67140;SDS011;54058;52.010;5.546;2023-11-19T05:14:17;45.38;;;5.20;;
67140;SDS011;54058;52.010;5.546;2023-11-19T05:16:46;44.70;;;5.50;;
67140;SDS011;54058;52.010;5.546;2023-11-19T05:19:12;38.80;;;4.57;;
67140;SDS011;54058;52.010;5.546;2023-11-19T05:21:41;40.75;;;4.95;;
67140;SDS011;54058;52.010;5.546;2023-11-19T05:24:07;42.45;;;6.03;;
67140;SDS011;54058;52.010;5.546;2023-11-19T05:26:33;48.97;;;6.10;;
67140;SDS011;54058;52.010;5.546;2023-11-19T05:28:59;42.17;;;5.50;;
67140;SDS011;54058;52.010;5.546;2023-11-19T05:31:24;51.40;;;6.38;;
67140;SDS011;54058;52.010;5.546;2023-11-19T05:33:50;33.80;;;5.53;;
67140;SDS011;54058;52.010;5.546;2023-11-19T05:36:16;40.95;;;6.15;;
67140;SDS011;54058;52.010;5.546;2023-11-19T05:38:42;36.80;;;6.65;;
67140;SDS011;54058;52.010;5.546;2023-11-19T05:41:09;51.30;;;5.90;;
67140;SDS011;54058;52.010;5.546;2023-11-19T05:43:35;49.92;;;5.25;;
67140;SDS011;54058;52.010;5.546;2023-11-19T05:46:01;39.70;;;5.47;;
67140;SDS011;54058;52.010;5.546;2023-11-19T05:48:26;41.35;;;6.35;;
67140;SDS011;54058;52.010;5.546;2023-11-19T05:50:52;47.50;;;5.63;;
67140;SDS011;54058;52.010;5.546;2023-11-19T05:53:18;42.05;;;5.90;;
67140;SDS011;54058;52.010;5.546;2023-11-19T05:55:44;36.42;;;4.65;;
67140;SDS011;54058;52.010;5.546;2023-11-19T05:58:14;45.40;;;6.30;;
67140;SDS011;54058;52.010;5.546;2023-11-19T06:00:39;54.92;;;6.25;;
67140;SDS011;54058;52.010;5.546;2023-11-19T06:03:05;48.75;;;5.72;;
67140;SDS011;54058;52.010;5.546;2023-11-19T06:05:34;41.35;;;5.57;;
67140;SDS011;54058;52.010;5.546;2023-11-19T06:08:00;45.28;;;5.20;;
67140;SDS011;54058;52.010;5.546;2023-11-19T06:10:25;48.38;;;4.97;;
67140;SDS011;54058;52.010;5.546;2023-11-19T06:12:57;34.90;;;4.60;;
67140;SDS011;54058;52.010;5.546;2023-11-19T06:15:43;42.40;;;6.63;;
67140;SDS011;54058;52.010;5.546;2023-11-19T06:18:09;45.10;;;5.90;;
67140;SDS011;54058;52.010;5.546;2023-11-19T06:20:37;44.08;;;4.88;;
67140;SDS011;54058;52.010;5.546;2023-11-19T06:23:03;57.78;;;6.38;;
67140;SDS011;54058;52.010;5.546;2023-11-19T06:25:29;45.10;;;5.03;;
67140;SDS011;54058;52.010;5.546;2023-11-19T06:27:54;42.92;;;8.00;;
67140;SDS011;54058;52.010;5.546;2023-11-19T06:30:20;53.55;;;6.05;;
67140;SDS011;54058;52.010;5.546;2023-11-19T06:32:46;44.80;;;6.15;;
67140;SDS011;54058;52.010;5.546;2023-11-19T06:35:12;48.83;;;5.97;;
67140;SDS011;54058;52.010;5.546;2023-11-19T06:37:39;38.08;;;4.80;;
67140;SDS011;54058;52.010;5.546;2023-11-19T06:40:05;50.75;;;6.53;;
67140;SDS011;54058;52.010;5.546;2023-11-19T06:42:31;51.85;;;5.90;;
67140;SDS011;54058;52.010;5.546;2023-11-19T06:44:57;41.92;;;5.60;;
67140;SDS011;54058;52.010;5.546;2023-11-19T06:47:26;48.25;;;6.40;;
67140;SDS011;54058;52.010;5.546;2023-11-19T06:49:52;45.30;;;6.32;;
67140;SDS011;54058;52.010;5.546;2023-11-19T06:52:19;48.70;;;5.90;;
67140;SDS011;54058;52.010;5.546;2023-11-19T06:54:44;51.95;;;5.97;;
67140;SDS011;54058;52.010;5.546;2023-11-19T06:57:13;47.38;;;5.50;;
67140;SDS011;54058;52.010;5.546;2023-11-19T06:59:39;44.75;;;6.50;;
67140;SDS011;54058;52.010;5.546;2023-11-19T07:02:05;46.05;;;5.50;;
67140;SDS011;54058;52.010;5.546;2023-11-19T07:04:31;33.65;;;5.70;;
67140;SDS011;54058;52.010;5.546;2023-11-19T07:06:58;40.65;;;5.43;;
67140;SDS011;54058;52.010;5.546;2023-11-19T07:09:27;47.03;;;5.78;;
67140;SDS011;54058;52.010;5.546;2023-11-19T07:11:53;46.88;;;6.15;;
67140;SDS011;54058;52.010;5.546;2023-11-19T07:14:18;38.25;;;4.90;;
67140;SDS011;54058;52.010;5.546;2023-11-19T07:16:44;47.38;;;5.82;;
67140;SDS011;54058;52.010;5.546;2023-11-19T07:19:11;43.63;;;6.45;;
67140;SDS011;54058;52.010;5.546;2023-11-19T07:21:37;28.35;;;3.83;;
67140;SDS011;54058;52.010;5.546;2023-11-19T07:24:09;34.97;;;4.53;;
67140;SDS011;54058;52.010;5.546;2023-11-19T07:26:35;46.47;;;5.72;;
67140;SDS011;54058;52.010;5.546;2023-11-19T07:29:02;40.55;;;5.18;;
67140;SDS011;54058;52.010;5.546;2023-11-19T07:31:28;47.42;;;5.88;;
67140;SDS011;54058;52.010;5.546;2023-11-19T07:33:53;49.35;;;5.10;;
67140;SDS011;54058;52.010;5.546;2023-11-19T07:36:19;42.42;;;5.30;;
67140;SDS011;54058;52.010;5.546;2023-11-19T07:38:45;36.70;;;4.60;;
67140;SDS011;54058;52.010;5.546;2023-11-19T07:43:43;29.38;;;4.20;;
67140;SDS011;54058;52.010;5.546;2023-11-19T07:46:12;36.85;;;5.18;;
67140;SDS011;54058;52.010;5.546;2023-11-19T07:48:39;44.13;;;6.22;;
67140;SDS011;54058;52.010;5.546;2023-11-19T07:51:05;38.83;;;5.07;;
67140;SDS011;54058;52.010;5.546;2023-11-19T07:53:31;46.78;;;5.82;;
67140;SDS011;54058;52.010;5.546;2023-11-19T07:55:58;38.78;;;4.78;;
67140;SDS011;54058;52.010;5.546;2023-11-19T07:58:26;36.13;;;4.97;;
67140;SDS011;54058;52.010;5.546;2023-11-19T08:00:52;36.25;;;4.30;;
67140;SDS011;54058;52.010;5.546;2023-11-19T08:03:17;31.92;;;4.90;;
67140;SDS011;54058;52.010;5.546;2023-11-19T08:05:49;37.63;;;5.32;;
67140;SDS011;54058;52.010;5.546;2023-11-19T08:08:15;38.85;;;5.00;;
67140;SDS011;54058;52.010;5.546;2023-11-19T08:10:42;41.00;;;4.95;;
67140;SDS011;54058;52.010;5.546;2023-11-19T08:13:09;38.92;;;4.85;;
67140;SDS011;54058;52.010;5.546;2023-11-19T08:15:35;31.57;;;4.73;;
67140;SDS011;54058;52.010;5.546;2023-11-19T08:18:01;31.27;;;5.20;;
67140;SDS011;54058;52.010;5.546;2023-11-19T08:20:27;43.10;;;5.00;;
67140;SDS011;54058;52.010;5.546;2023-11-19T08:22:53;29.42;;;3.83;;
67140;SDS011;54058;52.010;5.546;2023-11-19T08:25:18;45.38;;;5.78;;
67140;SDS011;54058;52.010;5.546;2023-11-19T08:27:44;33.47;;;4.75;;
67140;SDS011;54058;52.010;5.546;2023-11-19T08:30:10;26.10;;;4.88;;
67140;SDS011;54058;52.010;5.546;2023-11-19T08:32:37;45.28;;;4.97;;
67140;SDS011;54058;52.010;5.546;2023-11-19T08:35:02;35.35;;;4.40;;
67140;SDS011;54058;52.010;5.546;2023-11-19T08:37:28;30.10;;;4.82;;
67140;SDS011;54058;52.010;5.546;2023-11-19T08:39:54;31.95;;;4.35;;
67140;SDS011;54058;52.010;5.546;2023-11-19T08:42:19;39.17;;;5.50;;
67140;SDS011;54058;52.010;5.546;2023-11-19T08:44:50;42.28;;;5.10;;
67140;SDS011;54058;52.010;5.546;2023-11-19T08:47:19;41.35;;;5.47;;
67140;SDS011;54058;52.010;5.546;2023-11-19T08:49:44;32.22;;;5.72;;
67140;SDS011;54058;52.010;5.546;2023-11-19T08:52:10;41.67;;;5.10;;
67140;SDS011;54058;52.010;5.546;2023-11-19T08:54:36;27.88;;;4.18;;
67140;SDS011;54058;52.010;5.546;2023-11-19T08:57:02;41.03;;;4.43;;
67140;SDS011;54058;52.010;5.546;2023-11-19T08:59:29;30.58;;;4.72;;
67140;SDS011;54058;52.010;5.546;2023-11-19T09:01:55;46.53;;;6.20;;
67140;SDS011;54058;52.010;5.546;2023-11-19T09:04:21;32.05;;;3.67;;
67140;SDS011;54058;52.010;5.546;2023-11-19T09:06:47;33.78;;;5.53;;
67140;SDS011;54058;52.010;5.546;2023-11-19T09:09:13;28.55;;;3.92;;
67140;SDS011;54058;52.010;5.546;2023-11-19T09:11:39;42.30;;;5.50;;
67140;SDS011;54058;52.010;5.546;2023-11-19T09:14:08;35.13;;;5.18;;
67140;SDS011;54058;52.010;5.546;2023-11-19T09:16:33;33.00;;;4.53;;
67140;SDS011;54058;52.010;5.546;2023-11-19T09:18:59;28.10;;;4.72;;
67140;SDS011;54058;52.010;5.546;2023-11-19T09:21:25;42.05;;;5.85;;
67140;SDS011;54058;52.010;5.546;2023-11-19T09:23:51;30.40;;;5.30;;
67140;SDS011;54058;52.010;5.546;2023-11-19T09:26:18;33.05;;;4.43;;
67140;SDS011;54058;52.010;5.546;2023-11-19T09:28:43;40.63;;;5.05;;
67140;SDS011;54058;52.010;5.546;2023-11-19T09:31:16;40.97;;;5.57;;
67140;SDS011;54058;52.010;5.546;2023-11-19T09:33:42;26.35;;;4.03;;
67140;SDS011;54058;52.010;5.546;2023-11-19T09:36:08;36.35;;;5.43;;
67140;SDS011;54058;52.010;5.546;2023-11-19T09:38:35;38.72;;;5.20;;
67140;SDS011;54058;52.010;5.546;2023-11-19T09:41:04;28.02;;;4.38;;
67140;SDS011;54058;52.010;5.546;2023-11-19T09:43:33;47.55;;;5.63;;
67140;SDS011;54058;52.010;5.546;2023-11-19T09:46:02;39.25;;;4.35;;
67140;SDS011;54058;52.010;5.546;2023-11-19T09:48:36;31.20;;;4.78;;
67140;SDS011;54058;52.010;5.546;2023-11-19T09:51:03;29.07;;;5.23;;
67140;SDS011;54058;52.010;5.546;2023-11-19T09:53:30;33.25;;;5.43;;
67140;SDS011;54058;52.010;5.546;2023-11-19T09:55:56;39.20;;;5.35;;
67140;SDS011;54058;52.010;5.546;2023-11-19T09:58:25;33.60;;;4.70;;
67140;SDS011;54058;52.010;5.546;2023-11-19T10:00:51;35.50;;;5.75;;
67140;SDS011;54058;52.010;5.546;2023-11-19T10:03:19;34.92;;;4.80;;
67140;SDS011;54058;52.010;5.546;2023-11-19T10:05:47;32.13;;;5.25;;
67140;SDS011;54058;52.010;5.546;2023-11-19T10:08:12;27.80;;;4.72;;
67140;SDS011;54058;52.010;5.546;2023-11-19T10:10:39;49.30;;;5.35;;
67140;SDS011;54058;52.010;5.546;2023-11-19T10:13:04;39.42;;;5.60;;
67140;SDS011;54058;52.010;5.546;2023-11-19T10:15:35;38.88;;;6.60;;
67140;SDS011;54058;52.010;5.546;2023-11-19T10:18:02;37.90;;;4.90;;
67140;SDS011;54058;52.010;5.546;2023-11-19T10:20:32;39.53;;;5.15;;
67140;SDS011;54058;52.010;5.546;2023-11-19T10:23:05;32.97;;;4.57;;
67140;SDS011;54058;52.010;5.546;2023-11-19T10:25:31;42.33;;;5.47;;
67140;SDS011;54058;52.010;5.546;2023-11-19T10:28:00;34.92;;;4.70;;
67140;SDS011;54058;52.010;5.546;2023-11-19T10:30:29;36.40;;;5.82;;
67140;SDS011;54058;52.010;5.546;2023-11-19T10:35:27;32.05;;;4.78;;
67140;SDS011;54058;52.010;5.546;2023-11-19T10:37:53;32.63;;;4.25;;
67140;SDS011;54058;52.010;5.546;2023-11-19T10:40:18;37.03;;;4.90;;
67140;SDS011;54058;52.010;5.546;2023-11-19T10:42:45;43.20;;;5.70;;
67140;SDS011;54058;52.010;5.546;2023-11-19T10:45:23;52.47;;;6.00;;
67140;SDS011;54058;52.010;5.546;2023-11-19T10:47:50;37.88;;;4.40;;
67140;SDS011;54058;52.010;5.546;2023-11-19T10:50:16;32.22;;;4.05;;
67140;SDS011;54058;52.010;5.546;2023-11-19T10:52:43;31.33;;;5.20;;
67140;SDS011;54058;52.010;5.546;2023-11-19T10:55:09;30.73;;;4.47;;
67140;SDS011;54058;52.010;5.546;2023-11-19T10:57:39;39.35;;;5.07;;
67140;SDS011;54058;52.010;5.546;2023-11-19T11:00:11;37.28;;;5.70;;
67140;SDS011;54058;52.010;5.546;2023-11-19T11:02:40;40.70;;;5.00;;
67140;SDS011;54058;52.010;5.546;2023-11-19T11:05:08;29.48;;;4.55;;
67140;SDS011;54058;52.010;5.546;2023-11-19T11:07:36;36.78;;;4.72;;
67140;SDS011;54058;52.010;5.546;2023-11-19T11:10:02;31.90;;;4.25;;
67140;SDS011;54058;52.010;5.546;2023-11-19T11:12:31;23.90;;;4.88;;
67140;SDS011;54058;52.010;5.546;2023-11-19T11:15:01;26.70;;;4.40;;
67140;SDS011;54058;52.010;5.546;2023-11-19T11:17:30;35.78;;;4.43;;
67140;SDS011;54058;52.010;5.546;2023-11-19T11:19:58;31.33;;;4.20;;
67140;SDS011;54058;52.010;5.546;2023-11-19T11:22:24;33.90;;;4.80;;
67140;SDS011;54058;52.010;5.546;2023-11-19T11:38:34;34.42;;;5.07;;
67140;SDS011;54058;52.010;5.546;2023-11-19T11:43:56;37.28;;;5.43;;
67140;SDS011;54058;52.010;5.546;2023-11-19T11:54:09;29.05;;;4.10;;
67140;SDS011;54058;52.010;5.546;2023-11-19T11:57:00;30.70;;;4.35;;
67140;SDS011;54058;52.010;5.546;2023-11-19T11:59:26;31.13;;;4.30;;
67140;SDS011;54058;52.010;5.546;2023-11-19T12:01:57;29.00;;;4.70;;
67140;SDS011;54058;52.010;5.546;2023-11-19T12:04:26;21.73;;;3.60;;
67140;SDS011;54058;52.010;5.546;2023-11-19T12:07:03;27.45;;;3.63;;
67140;SDS011;54058;52.010;5.546;2023-11-19T12:09:32;31.83;;;4.03;;
67140;SDS011;54058;52.010;5.546;2023-11-19T12:12:40;19.17;;;2.73;;
67140;SDS011;54058;52.010;5.546;2023-11-19T12:15:01;25.38;;;3.53;;
67140;SDS011;54058;52.010;5.546;2023-11-19T12:20:02;19.55;;;3.67;;
67140;SDS011;54058;52.010;5.546;2023-11-19T12:22:33;25.63;;;4.13;;
67140;SDS011;54058;52.010;5.546;2023-11-19T12:25:03;24.52;;;3.40;;
67140;SDS011;54058;52.010;5.546;2023-11-19T12:29:56;30.67;;;3.60;;
67140;SDS011;54058;52.010;5.546;2023-11-19T12:32:22;22.23;;;3.80;;
67140;SDS011;54058;52.010;5.546;2023-11-19T12:34:47;34.60;;;4.40;;
67140;SDS011;54058;52.010;5.546;2023-11-19T12:37:13;26.67;;;2.85;;
67140;SDS011;54058;52.010;5.546;2023-11-19T12:39:40;23.17;;;3.85;;
67140;SDS011;54058;52.010;5.546;2023-11-19T12:42:06;26.38;;;3.78;;
67140;SDS011;54058;52.010;5.546;2023-11-19T12:44:31;20.85;;;3.47;;
67140;SDS011;54058;52.010;5.546;2023-11-19T12:46:59;30.08;;;4.50;;
67140;SDS011;54058;52.010;5.546;2023-11-19T12:51:52;24.77;;;3.97;;
67140;SDS011;54058;52.010;5.546;2023-11-19T12:54:17;20.95;;;4.18;;
67140;SDS011;54058;52.010;5.546;2023-11-19T12:56:51;29.13;;;3.70;;
67140;SDS011;54058;52.010;5.546;2023-11-19T12:59:18;26.75;;;4.82;;
67140;SDS011;54058;52.010;5.546;2023-11-19T13:01:59;27.00;;;4.07;;
67140;SDS011;54058;52.010;5.546;2023-11-19T13:04:29;20.60;;;3.63;;
67140;SDS011;54058;52.010;5.546;2023-11-19T13:07:01;23.55;;;3.53;;
67140;SDS011;54058;52.010;5.546;2023-11-19T13:09:29;24.73;;;4.45;;
67140;SDS011;54058;52.010;5.546;2023-11-19T13:11:55;21.75;;;3.90;;
67140;SDS011;54058;52.010;5.546;2023-11-19T13:14:21;37.83;;;3.85;;
67140;SDS011;54058;52.010;5.546;2023-11-19T13:16:48;27.60;;;4.53;;
67140;SDS011;54058;52.010;5.546;2023-11-19T13:19:14;26.08;;;4.53;;
67140;SDS011;54058;52.010;5.546;2023-11-19T13:21:45;33.22;;;4.15;;
67140;SDS011;54058;52.010;5.546;2023-11-19T13:24:12;31.33;;;4.30;;
67140;SDS011;54058;52.010;5.546;2023-11-19T13:26:38;28.88;;;4.68;;
67140;SDS011;54058;52.010;5.546;2023-11-19T13:29:04;29.70;;;4.97;;
67140;SDS011;54058;52.010;5.546;2023-11-19T13:31:29;29.95;;;4.57;;
67140;SDS011;54058;52.010;5.546;2023-11-19T13:33:55;34.10;;;4.55;;
67140;SDS011;54058;52.010;5.546;2023-11-19T13:36:23;37.45;;;5.13;;
67140;SDS011;54058;52.010;5.546;2023-11-19T13:38:48;26.40;;;4.50;;
67140;SDS011;54058;52.010;5.546;2023-11-19T13:41:14;29.45;;;3.92;;
67140;SDS011;54058;52.010;5.546;2023-11-19T13:43:40;31.80;;;4.47;;
67140;SDS011;54058;52.010;5.546;2023-11-19T13:46:05;26.92;;;3.95;;
67140;SDS011;54058;52.010;5.546;2023-11-19T13:48:31;25.65;;;5.10;;
67140;SDS011;54058;52.010;5.546;2023-11-19T13:50:57;27.90;;;3.92;;
67140;SDS011;54058;52.010;5.546;2023-11-19T13:53:23;26.45;;;3.90;;
67140;SDS011;54058;52.010;5.546;2023-11-19T13:55:49;23.00;;;3.08;;
67140;SDS011;54058;52.010;5.546;2023-11-19T13:58:15;18.25;;;2.92;;
67140;SDS011;54058;52.010;5.546;2023-11-19T14:00:41;26.90;;;3.65;;
67140;SDS011;54058;52.010;5.546;2023-11-19T14:05:35;14.80;;;2.97;;
67140;SDS011;54058;52.010;5.546;2023-11-19T14:08:01;18.75;;;2.95;;
67140;SDS011;54058;52.010;5.546;2023-11-19T14:10:26;18.33;;;3.28;;
67140;SDS011;54058;52.010;5.546;2023-11-19T14:12:52;28.10;;;5.10;;
67140;SDS011;54058;52.010;5.546;2023-11-19T14:15:18;27.05;;;3.50;;
67140;SDS011;54058;52.010;5.546;2023-11-19T14:17:43;29.85;;;4.07;;
67140;SDS011;54058;52.010;5.546;2023-11-19T14:20:09;20.58;;;2.92;;
67140;SDS011;54058;52.010;5.546;2023-11-19T14:22:41;20.92;;;3.33;;
67140;SDS011;54058;52.010;5.546;2023-11-19T14:25:08;22.55;;;3.83;;
67140;SDS011;54058;52.010;5.546;2023-11-19T14:27:37;32.30;;;4.10;;
67140;SDS011;54058;52.010;5.546;2023-11-19T14:30:06;30.23;;;3.47;;
67140;SDS011;54058;52.010;5.546;2023-11-19T14:32:36;30.25;;;3.72;;
67140;SDS011;54058;52.010;5.546;2023-11-19T14:35:02;34.72;;;5.00;;
67140;SDS011;54058;52.010;5.546;2023-11-19T14:37:31;30.13;;;3.85;;
67140;SDS011;54058;52.010;5.546;2023-11-19T14:39:57;22.52;;;3.92;;
67140;SDS011;54058;52.010;5.546;2023-11-19T14:42:23;22.20;;;3.42;;
67140;SDS011;54058;52.010;5.546;2023-11-19T14:44:50;24.40;;;3.90;;
67140;SDS011;54058;52.010;5.546;2023-11-19T14:47:18;24.25;;;4.03;;
67140;SDS011;54058;52.010;5.546;2023-11-19T14:49:44;25.30;;;3.55;;
67140;SDS011;54058;52.010;5.546;2023-11-19T14:52:09;28.70;;;4.05;;
67140;SDS011;54058;52.010;5.546;2023-11-19T14:54:36;26.55;;;3.90;;
67140;SDS011;54058;52.010;5.546;2023-11-19T14:57:02;20.20;;;3.35;;
67140;SDS011;54058;52.010;5.546;2023-11-19T14:59:28;27.25;;;4.40;;
67140;SDS011;54058;52.010;5.546;2023-11-19T15:01:53;32.22;;;4.22;;
67140;SDS011;54058;52.010;5.546;2023-11-19T15:04:19;23.42;;;4.18;;
67140;SDS011;54058;52.010;5.546;2023-11-19T15:06:45;22.08;;;3.67;;
67140;SDS011;54058;52.010;5.546;2023-11-19T15:09:11;29.88;;;4.38;;
67140;SDS011;54058;52.010;5.546;2023-11-19T15:11:42;26.58;;;3.55;;
67140;SDS011;54058;52.010;5.546;2023-11-19T15:14:11;21.92;;;3.53;;